AirNav   Everest Fuels
 
 621 users online  

49T Dallas CBD Vertiport
Dallas, Texas, USA

GOING TO DALLAS?


FAA INFORMATION EFFECTIVE 11 AUGUST 2022

Location

FAA Identifier: 49T
Lat/Long: 32-46-18.2000N 096-48-07.4000W
32-46.303333N 096-48.123333W
32.7717222,-96.8020556
(estimated)
Elevation: 480 ft. / 146 m (estimated)
Variation: 06E (1990)
Time zone: UTC -5 (UTC -6 during Standard Time)
Zip code: 75202

Heliport Operations

Heliport use: Open to the public
Activation date: 01/1994
Control tower: no
ARTCC: FORT WORTH CENTER
FSS: FORT WORTH FLIGHT SERVICE STATION
NOTAMs facility: FTW (NOTAM-D service available)
Attendance: UNATNDD
Wind indicator: lighted
Segmented circle: no
Lights: ACTVT PERIMETER LGTS - CTAF.
Beacon: white-green-yellow (heliport)
Operates sunset to sunrise.

Heliport Communications

CTAF/UNICOM: 123.05
WX AWOS-3: 135.425 (214-670-1243)
WX ASOS at DAL (5 nm NW): PHONE 214-353-1551
WX ASOS at RBD (6 nm SW): PHONE 214-330-5317
WX AWOS-3PT at ADS (12 nm N): PHONE 972-386-4855
WX AWOS-3PT at LNC (12 nm S): 118.975 (972-227-0471)
WX AWOS-3P at GPM (13 nm W): 118.475 (972-606-1433)
WX AWOS-3 at HQZ (14 nm E): 118.175 (972-222-7631)
WX ASOS at DFW (14 nm NW): PHONE 972-615-2608
WX ASOS at GKY (16 nm SW): 127.375 (817-557-0251)
WX AWOS-3 at JWY (20 nm S): 119.575 (972-937-4747)

Nearby radio navigation aids

VOR radial/distance  VOR name  Freq  Var
CVEr138/8.8COWBOY VOR/DME116.2006E
TTTr110/13.4MAVERICK VOR/DME113.1006E
FUZr104/20.3RANGER VORTAC115.7006E

 
NDB name  Hdg/Dist  Freq  Var  ID
MESQUITE258/14.024803EPQF .--. --.- ..-.

Heliport Services

Parking: tiedowns

Runway Information

Helipad H1

Dimensions: 60 x 60 ft. / 18 x 18 m
Surface: concrete, in excellent condition
Weight bearing capacity: 
Single wheel: 43.0
Runway edge lights: PERI
Operational restrictions: ROOFTOP. INGRESS/EGRESS SW.
Latitude: 32-46.288000N
Longitude: 096-48.133667W
Elevation: 480.0 ft.
Traffic pattern: leftleft
Markings: basic, in good condition

Helipad H2

Dimensions: 60 x 60 ft. / 18 x 18 m
Surface: concrete, in excellent condition
Weight bearing capacity: 
Single wheel: 43.0
Runway edge lights: PERI
Operational restrictions: ROOFTOP. INGRESS/EGRESS SE.
Latitude: 32-46.318500N
Longitude: 096-48.113833W
Elevation: 480.0 ft.
Traffic pattern: leftleft
Markings: basic, in good condition

Heliport Ownership and Management from official FAA records

Ownership: Publicly-owned
Owner: CITY OF DALLAS
801 S LAMAR
DALLAS, TX 75202
Phone 214-670-4338
DEPT OF AVIATION.
Manager: RAFAEL GARZA JR.
5303 CHALLENGER DRIVE
DALLAS, TX 75237
Phone 214-671-1296
ALSO 214-670-7612.

Heliport Operational Statistics

Aircraft operations: avg 61/month *
100% transient general aviation
* for 12-month period ending 31 December 2018

Additional Remarks

A52-H1 H1 & H2 900 FT BLDGS NW; 500 FT BLDGS NE 1.2 MILE DSTC.
FOR CD CTC REGIONAL APCH AT 972-615-2799.
HELIPORT PHYSICAL ADDRESS 801 S. LAMAR, DALLAS, TX.
HELIPAD SECURITY 214-939-2940.

Instrument Procedures

There are no published instrument procedures at 49T.

Some nearby airports with instrument procedures:

KDAL - Dallas Love Field Airport (5 nm NW)
KRBD - Dallas Executive Airport (6 nm SW)
KADS - Addison Airport (12 nm N)
KLNC - Lancaster Regional Airport (12 nm S)
KGPM - Grand Prairie Municipal Airport (13 nm W)
KHQZ - Mesquite Metro Airport (14 nm E)
KDFW - Dallas-Fort Worth International Airport (14 nm NW)
KGKY - Arlington Municipal Airport (16 nm SW)
KJWY - Mid-Way Regional Airport (20 nm S)
 
Loc | Ops | Rwys | IFR | FBO | Links
Com | Nav | Svcs | Stats | Notes

City of Fort Worth
 
Area around 49T (Dallas CBD Vertiport)
 
Road maps at: MapQuest Bing Google
 
Aerial photo
WARNING: Photo may not be current or correct
Aerial photo of 49T (Dallas CBD Vertiport)
Photo by Bryant Sivess
Photo taken 10-Oct-2013
looking north.

Do you have a better or more recent aerial photo of Dallas CBD Vertiport that you would like to share? If so, please send us your photo.

 
Sectional chart

 
Airport distance calculator
Flying to Dallas CBD Vertiport? Find the distance to fly.

From to 49T

Sunrise and sunset
Times for 17-Aug-2022
 Local
(UTC-5)
 Zulu
(UTC)
Morning civil twilight06:2711:27
Sunrise06:5311:53
Sunset20:1001:10
Evening civil twilight20:3501:35

Current date and time
Zulu (UTC)  17-Aug-2022 09:11:53
Local (UTC-5)  17-Aug-2022 04:11:53
 
METAR
KDAL 
5nm NW 
170853Z 26003KT 10SM BKN250 30/19 A2990 RMK AO2 SLP117 T03000189 53003
KRBD 
6nm SW 
170853Z AUTO 20006KT 10SM CLR 28/17 A2990 RMK AO2 SLP115 T02830172 55000
KADS 
12nm N 
170855Z AUTO 20004KT 10SM CLR 30/17 A2993 RMK AO2 T02980170
KLNC 
12nm S 
170855Z AUTO 00000KT 10SM CLR 28/19 A2992 RMK AO2 T02760187
KGPM 
13nm W 
170855Z AUTO 20005KT 10SM CLR 29/16 A2992 RMK AO2 T02900160
KDFW 
13nm NW 
170853Z 22007KT 10SM BKN250 29/17 A2989 RMK AO2 SLP112 T02940167 53002
KHQZ 
14nm E 
170855Z AUTO 17005KT 10SM CLR 25/18 A2991 RMK AO1 T02510177
KGKY 
16nm SW 
170853Z AUTO 16003KT 10SM CLR 29/17 A2991 RMK AO2 SLP115 T02890172 53001
KJWY 
20nm S 
170855Z AUTO 19005KT 10SM CLR 28/19 A2994 RMK AO2 T02750192
TAF
KDAL 
5nm NW 
170535Z 1706/1806 19005KT P6SM BKN250 FM171200 26007KT P6SM BKN180 FM171700 32008KT P6SM BKN150 FM172200 36007KT P6SM VCTS BKN070CB FM180300 03006KT P6SM BKN100
KDFW 
13nm NW 
170535Z 1706/1812 20007KT P6SM BKN250 FM171200 26006KT P6SM BKN180 FM171700 32009KT P6SM BKN150 FM172200 36009KT P6SM VCTS BKN070CB FM180300 03006KT P6SM BKN100 FM181100 01006KT P6SM VCSH SCT025 BKN040
KGKY 
16nm SW 
170535Z 1706/1806 19005KT P6SM BKN250 FM171200 26008KT P6SM BKN180 FM171700 32007KT P6SM BKN150 FM172200 02007KT P6SM VCTS BKN070CB FM180300 02006KT P6SM BKN100
NOTAMs
Click for the latest NOTAMs
NOTAMs are issued by the DoD/FAA and will open in a separate window not controlled by AirNav.

 

 
 

Would you like to see your business listed on this page?

 If your business provides an interesting product or service to pilots, flight crews, aircraft, or users of the Dallas CBD Vertiport, you should consider listing it here.  To start the listing process, click on the button below
 
Add a business
 

Other Pages about Dallas CBD Vertiport

www.dallascityhall.com/...
 
Update a link
 
Copyright © AirNav, LLC. All rights reserved. Privacy Policy  Contact